createdAt,value
2023-05-05T00:02:16.103Z,1.57
2023-05-05T00:04:43.404Z,1.10
2023-05-05T00:07:10.719Z,1.87
2023-05-05T00:09:37.951Z,0.90
2023-05-05T00:12:06.882Z,0.90
2023-05-05T00:14:34.271Z,1.30
2023-05-05T00:17:01.626Z,1.73
2023-05-05T00:19:28.926Z,0.83
2023-05-05T00:21:56.266Z,0.80
2023-05-05T00:24:23.475Z,1.07
2023-05-05T00:26:50.741Z,1.10
2023-05-05T00:29:19.392Z,1.20
2023-05-05T00:31:46.651Z,1.20
2023-05-05T00:34:13.921Z,1.43
2023-05-05T00:36:41.277Z,0.93
2023-05-05T00:39:08.820Z,1.03
2023-05-05T00:41:36.163Z,1.40
2023-05-05T00:44:03.552Z,1.07
2023-05-05T00:46:34.583Z,0.40
2023-05-05T00:49:02.165Z,1.27
2023-05-05T00:51:29.556Z,0.90
2023-05-05T00:53:57.051Z,0.70
2023-05-05T00:56:24.558Z,0.90
2023-05-05T00:58:51.915Z,1.40
2023-05-05T01:01:19.199Z,1.40
2023-05-05T01:03:48.004Z,1.83
2023-05-05T01:06:28.066Z,1.30
2023-05-05T01:09:08.707Z,0.93
2023-05-05T01:11:44.414Z,1.13
2023-05-05T01:14:14.483Z,0.93
2023-05-05T01:16:53.489Z,2.10
2023-05-05T01:19:46.532Z,1.07
2023-05-05T01:22:18.439Z,0.60
2023-05-05T01:25:12.519Z,1.00
2023-05-05T01:27:54.974Z,1.60
2023-05-05T01:31:00.482Z,0.80
2023-05-05T01:33:35.828Z,1.10
2023-05-05T01:36:07.709Z,1.23
2023-05-05T01:38:39.680Z,1.40
2023-05-05T01:41:12.990Z,0.70
2023-05-05T01:43:43.471Z,1.03
2023-05-05T01:46:11.910Z,0.73
2023-05-05T01:48:42.854Z,1.00
2023-05-05T01:51:12.052Z,0.97
2023-05-05T01:53:40.086Z,1.30
2023-05-05T01:56:09.306Z,1.17
2023-05-05T01:58:38.075Z,1.30
2023-05-05T02:01:06.660Z,0.83
2023-05-05T02:03:35.691Z,1.17
2023-05-05T02:06:07.189Z,1.23
2023-05-05T02:08:37.539Z,0.77
2023-05-05T02:11:05.893Z,2.00
2023-05-05T02:13:33.497Z,0.73
2023-05-05T02:16:02.940Z,1.17
2023-05-05T02:18:31.856Z,1.13
2023-05-05T02:20:59.217Z,0.83
2023-05-05T02:23:28.260Z,0.70
2023-05-05T02:25:59.850Z,1.33
2023-05-05T02:28:35.078Z,1.30
2023-05-05T02:31:04.705Z,0.90
2023-05-05T02:33:33.686Z,1.07
2023-05-05T02:36:08.369Z,1.10
2023-05-05T02:38:41.704Z,1.80
2023-05-05T02:41:12.843Z,0.70
2023-05-05T02:43:43.457Z,0.73
2023-05-05T02:46:11.335Z,0.80
2023-05-05T02:48:40.684Z,0.83
2023-05-05T02:51:08.012Z,1.60
2023-05-05T02:53:40.091Z,1.00
2023-05-05T02:56:16.205Z,2.20
2023-05-05T02:58:53.884Z,0.87
2023-05-05T03:01:29.447Z,0.60
2023-05-05T03:04:06.295Z,1.10
2023-05-05T03:06:41.577Z,1.20
2023-05-05T03:09:16.134Z,1.37
2023-05-05T03:11:49.500Z,0.50
2023-05-05T03:14:19.172Z,1.77
2023-05-05T03:16:49.893Z,0.97
2023-05-05T03:19:19.054Z,1.23
2023-05-05T03:21:48.912Z,0.90
2023-05-05T03:24:19.128Z,1.40
2023-05-05T03:26:54.492Z,1.20
2023-05-05T03:29:25.536Z,0.70
2023-05-05T03:31:53.369Z,1.00
2023-05-05T03:34:21.171Z,0.40
2023-05-05T03:36:49.221Z,1.00
2023-05-05T03:39:18.497Z,0.93
2023-05-05T03:41:46.078Z,0.93
2023-05-05T03:44:15.101Z,2.20
2023-05-05T03:46:42.690Z,0.87
2023-05-05T03:49:12.855Z,1.33
2023-05-05T03:51:42.011Z,1.00
2023-05-05T03:54:09.391Z,0.87
2023-05-05T03:56:38.705Z,0.80
2023-05-05T03:59:06.003Z,1.00
2023-05-05T04:01:33.449Z,1.50
2023-05-05T04:04:01.161Z,0.70
2023-05-05T04:06:28.567Z,0.90
2023-05-05T04:08:55.845Z,0.93
2023-05-05T04:11:23.476Z,0.80
2023-05-05T04:13:54.202Z,0.93
2023-05-05T04:16:21.969Z,1.00
2023-05-05T04:18:49.703Z,1.43
2023-05-05T04:21:17.219Z,1.20
2023-05-05T04:23:45.098Z,1.00
2023-05-05T04:26:12.353Z,0.73
2023-05-05T04:28:39.637Z,1.50
2023-05-05T04:31:08.572Z,1.40
2023-05-05T04:33:38.777Z,1.10
2023-05-05T04:36:07.031Z,1.80
2023-05-05T04:38:34.398Z,0.63
2023-05-05T04:41:04.850Z,1.53
2023-05-05T04:43:32.224Z,1.90
2023-05-05T04:45:59.692Z,1.33
2023-05-05T04:48:32.326Z,1.13
2023-05-05T04:51:04.102Z,1.00
2023-05-05T04:53:31.687Z,0.90
2023-05-05T04:55:59.615Z,0.70
2023-05-05T04:58:27.778Z,1.03
2023-05-05T05:00:55.763Z,0.97
2023-05-05T05:03:23.613Z,1.33
2023-05-05T05:05:52.273Z,2.20
2023-05-05T05:08:20.245Z,1.47
2023-05-05T05:10:47.445Z,1.20
2023-05-05T05:13:15.111Z,1.30
2023-05-05T05:15:42.741Z,1.60
2023-05-05T05:18:10.010Z,0.83
2023-05-05T05:20:38.628Z,1.00
2023-05-05T05:23:07.319Z,1.00
2023-05-05T05:25:38.438Z,0.90
2023-05-05T05:28:09.623Z,0.93
2023-05-05T05:30:43.581Z,0.80
2023-05-05T05:33:11.890Z,0.90
2023-05-05T05:35:40.069Z,1.00
2023-05-05T05:38:09.221Z,1.00
2023-05-05T05:40:36.664Z,1.00
2023-05-05T05:43:04.291Z,0.83
2023-05-05T05:45:32.556Z,1.83
2023-05-05T05:48:00.060Z,3.20
2023-05-05T05:50:27.456Z,0.60
2023-05-05T05:52:55.580Z,1.17
2023-05-05T05:55:24.710Z,0.87
2023-05-05T05:57:52.729Z,1.20
2023-05-05T06:00:20.693Z,0.90
2023-05-05T06:02:54.677Z,1.23
2023-05-05T06:05:25.295Z,1.20
2023-05-05T06:07:52.864Z,1.37
2023-05-05T06:10:28.033Z,1.30
2023-05-05T06:13:04.869Z,1.13
2023-05-05T06:15:33.583Z,0.90
2023-05-05T06:18:03.249Z,1.27
2023-05-05T06:20:31.302Z,1.30
2023-05-05T06:22:58.913Z,0.93
2023-05-05T06:25:27.836Z,0.90
2023-05-05T06:27:55.091Z,1.20
2023-05-05T06:30:23.799Z,1.07
2023-05-05T06:32:51.149Z,1.10
2023-05-05T06:35:18.412Z,0.73
2023-05-05T06:37:45.767Z,1.17
2023-05-05T06:40:13.274Z,1.20
2023-05-05T06:42:40.516Z,1.07
2023-05-05T06:45:11.458Z,1.10
2023-05-05T06:47:40.510Z,1.03
2023-05-05T06:50:09.117Z,1.10
2023-05-05T06:52:37.086Z,0.97
2023-05-05T06:55:04.876Z,1.10
2023-05-05T06:57:32.352Z,1.30
2023-05-05T07:00:00.012Z,1.63
2023-05-05T07:02:27.401Z,1.83
2023-05-05T07:04:56.041Z,1.80
2023-05-05T07:07:23.472Z,1.27
2023-05-05T07:09:50.793Z,1.03
2023-05-05T07:12:18.086Z,1.07
2023-05-05T07:14:46.419Z,1.70
2023-05-05T07:17:13.660Z,1.40
2023-05-05T07:19:40.842Z,1.30
2023-05-05T07:22:09.567Z,1.40
2023-05-05T07:24:36.749Z,0.93
2023-05-05T07:27:04.126Z,0.87
2023-05-05T07:29:31.388Z,1.30
2023-05-05T07:31:58.695Z,0.87
2023-05-05T07:34:25.942Z,1.50
2023-05-05T07:36:53.303Z,1.33
2023-05-05T07:39:22.028Z,1.30
2023-05-05T07:41:49.306Z,1.43
2023-05-05T07:44:16.631Z,1.37
2023-05-05T07:46:43.935Z,1.70
2023-05-05T07:49:11.127Z,1.10
2023-05-05T07:51:38.521Z,1.57
2023-05-05T07:54:05.928Z,2.03
2023-05-05T07:56:34.681Z,1.40
2023-05-05T07:59:01.924Z,0.90
2023-05-05T08:01:29.186Z,1.17
2023-05-05T08:03:56.510Z,1.57
2023-05-05T08:06:24.193Z,2.00
2023-05-05T08:08:51.422Z,1.57
2023-05-05T08:11:18.905Z,1.87
2023-05-05T08:13:47.827Z,1.47
2023-05-05T08:16:15.239Z,1.40
2023-05-05T08:18:42.524Z,1.73
2023-05-05T08:21:10.628Z,1.40
2023-05-05T08:23:38.815Z,2.20
2023-05-05T08:26:06.865Z,1.17
2023-05-05T08:28:34.863Z,1.57
2023-05-05T08:31:03.810Z,2.50
2023-05-05T08:33:31.112Z,1.60
2023-05-05T08:35:58.549Z,1.70
2023-05-05T08:38:25.923Z,1.83
2023-05-05T08:40:53.254Z,1.60
2023-05-05T08:43:21.020Z,1.80
2023-05-05T08:45:49.282Z,1.43
2023-05-05T08:48:18.771Z,2.47
2023-05-05T08:50:49.655Z,1.70
2023-05-05T08:53:18.008Z,1.93
2023-05-05T08:55:50.641Z,1.50
2023-05-05T08:58:18.796Z,1.67
2023-05-05T09:00:46.341Z,1.83
2023-05-05T09:03:14.514Z,2.00
2023-05-05T09:05:43.760Z,1.60
2023-05-05T09:08:11.648Z,1.67
2023-05-05T09:10:41.158Z,1.53
2023-05-05T09:13:09.913Z,2.23
2023-05-05T09:15:37.181Z,1.73
2023-05-05T09:18:06.593Z,1.80
2023-05-05T09:20:35.101Z,1.50
2023-05-05T09:23:10.417Z,1.60
2023-05-05T09:25:38.101Z,1.40
2023-05-05T09:28:10.651Z,1.47
2023-05-05T09:30:39.607Z,1.73
2023-05-05T09:33:07.348Z,2.20
2023-05-05T09:35:51.633Z,1.83
2023-05-05T09:38:21.674Z,1.50
2023-05-05T09:40:50.210Z,1.70
2023-05-05T09:43:19.333Z,2.37
2023-05-05T09:45:48.113Z,1.80
2023-05-05T09:48:25.930Z,2.47
2023-05-05T09:50:54.362Z,1.57
2023-05-05T09:53:23.887Z,1.77
2023-05-05T09:55:55.237Z,2.33
2023-05-05T09:58:24.396Z,2.23
2023-05-05T10:00:51.760Z,1.47
2023-05-05T10:03:19.558Z,1.70
2023-05-05T10:05:48.513Z,2.57
2023-05-05T10:08:16.599Z,2.20
2023-05-05T10:10:49.910Z,2.20
2023-05-05T10:13:19.666Z,1.93
2023-05-05T10:15:48.450Z,2.27
2023-05-05T10:18:19.613Z,2.40
2023-05-05T10:20:51.770Z,2.53
2023-05-05T10:23:22.680Z,2.33
2023-05-05T10:25:54.485Z,2.70
2023-05-05T10:28:31.471Z,2.13
2023-05-05T10:31:02.045Z,2.23
2023-05-05T10:33:39.567Z,2.00
2023-05-05T10:36:07.778Z,2.50
2023-05-05T10:38:37.300Z,2.50
2023-05-05T10:41:06.717Z,2.00
2023-05-05T10:43:34.257Z,1.67
2023-05-05T10:46:02.221Z,1.90
2023-05-05T10:48:34.619Z,1.83
2023-05-05T10:51:38.332Z,1.80
2023-05-05T10:54:13.787Z,1.63
2023-05-05T10:56:43.262Z,2.07
2023-05-05T10:59:41.564Z,1.73
2023-05-05T11:02:22.587Z,1.97
2023-05-05T11:05:13.332Z,2.20
2023-05-05T11:07:41.833Z,2.37
2023-05-05T11:10:10.263Z,2.00
2023-05-05T11:13:11.135Z,2.70
2023-05-05T11:15:40.265Z,1.70
2023-05-05T11:18:08.392Z,2.07
2023-05-05T11:21:01.810Z,1.80
2023-05-05T11:23:29.895Z,1.60
2023-05-05T11:25:57.464Z,2.27
2023-05-05T11:28:26.392Z,2.17
2023-05-05T11:31:26.250Z,2.57
2023-05-05T11:33:55.114Z,2.37
2023-05-05T11:36:39.539Z,2.37
2023-05-05T11:39:09.400Z,2.83
2023-05-05T11:42:16.066Z,2.90
2023-05-05T11:44:43.466Z,3.03
2023-05-05T11:47:40.979Z,2.90
2023-05-05T11:50:20.806Z,2.53
2023-05-05T11:52:48.220Z,2.90
2023-05-05T11:55:20.094Z,2.80
2023-05-05T11:57:47.392Z,2.37
2023-05-05T12:00:15.623Z,3.70
2023-05-05T12:02:43.120Z,2.73
2023-05-05T12:05:10.717Z,3.00
2023-05-05T12:07:39.492Z,2.80
2023-05-05T12:10:07.812Z,3.30
2023-05-05T12:12:37.056Z,3.00
2023-05-05T12:15:05.330Z,3.00
2023-05-05T12:17:40.239Z,2.53
2023-05-05T12:20:09.591Z,3.00
2023-05-05T12:22:38.857Z,3.23
2023-05-05T12:25:07.635Z,2.80
2023-05-05T12:27:35.577Z,2.90
2023-05-05T12:30:15.032Z,3.00
2023-05-05T12:32:44.290Z,2.93
2023-05-05T12:35:12.659Z,2.87
2023-05-05T12:37:42.997Z,3.40
2023-05-05T12:40:44.092Z,2.73
2023-05-05T12:43:24.314Z,3.60
2023-05-05T12:45:59.447Z,3.47
2023-05-05T12:48:27.200Z,3.60
2023-05-05T12:50:54.563Z,2.80
2023-05-05T12:53:23.921Z,3.30
2023-05-05T12:55:51.693Z,2.83
2023-05-05T12:58:19.589Z,3.57
2023-05-05T13:01:10.780Z,3.70
2023-05-05T13:03:38.254Z,3.43
2023-05-05T13:06:19.155Z,2.57
2023-05-05T13:08:47.844Z,3.03
2023-05-05T13:11:15.045Z,2.67
2023-05-05T13:13:42.382Z,3.33
2023-05-05T13:16:09.630Z,3.10
2023-05-05T13:18:43.944Z,3.40
2023-05-05T13:21:11.278Z,4.03
2023-05-05T13:23:38.614Z,4.10
2023-05-05T13:26:07.398Z,3.87
2023-05-05T13:28:34.783Z,3.30
2023-05-05T13:31:02.109Z,3.10
2023-05-05T13:33:29.342Z,3.80
2023-05-05T13:35:56.644Z,2.90
2023-05-05T13:38:23.907Z,2.93
2023-05-05T13:40:53.253Z,3.60
2023-05-05T13:43:21.849Z,3.20
2023-05-05T13:45:49.141Z,3.50
2023-05-05T13:48:16.455Z,3.40
2023-05-05T13:50:43.810Z,3.17
2023-05-05T13:53:11.060Z,2.70
2023-05-05T13:55:38.718Z,3.13
2023-05-05T13:58:05.958Z,3.20
2023-05-05T14:00:34.713Z,3.17
2023-05-05T14:03:02.248Z,3.53
2023-05-05T14:05:29.586Z,2.90
2023-05-05T14:07:56.835Z,3.57
2023-05-05T14:10:24.207Z,3.60
2023-05-05T14:12:51.500Z,2.50
2023-05-05T14:15:19.289Z,3.43
2023-05-05T14:17:47.981Z,2.90
2023-05-05T14:20:15.189Z,3.43
2023-05-05T14:22:42.386Z,3.67
2023-05-05T14:25:10.030Z,3.70
2023-05-05T14:27:37.938Z,3.10
2023-05-05T14:30:06.499Z,3.20
2023-05-05T14:32:33.792Z,3.70
2023-05-05T14:35:02.625Z,3.37
2023-05-05T14:37:29.876Z,3.37
2023-05-05T14:39:57.157Z,3.63
2023-05-05T14:42:24.464Z,3.30
2023-05-05T14:44:51.885Z,3.07
2023-05-05T14:47:19.297Z,2.97
2023-05-05T14:49:46.672Z,3.70
2023-05-05T14:52:15.267Z,3.73
2023-05-05T14:54:43.049Z,3.13
2023-05-05T14:57:10.348Z,2.93
2023-05-05T14:59:37.628Z,2.60
2023-05-05T15:02:05.018Z,2.43
2023-05-05T15:04:32.402Z,2.17
2023-05-05T15:06:59.642Z,2.50
2023-05-05T15:09:28.643Z,19.90
2023-05-05T15:11:56.492Z,5.50
2023-05-05T15:14:24.215Z,2.70
2023-05-05T15:16:51.614Z,6.30
2023-05-05T15:19:18.998Z,2.73
2023-05-05T15:21:46.270Z,2.67
2023-05-05T15:24:13.621Z,2.90
2023-05-05T15:26:42.221Z,2.60
2023-05-05T15:29:09.525Z,2.30
2023-05-05T15:31:36.916Z,2.80
2023-05-05T15:34:04.296Z,2.40
2023-05-05T15:36:31.578Z,2.90
2023-05-05T15:38:58.883Z,2.50
2023-05-05T15:41:26.136Z,2.07
2023-05-05T15:44:05.082Z,1.90
2023-05-05T15:46:32.479Z,2.13
2023-05-05T15:48:59.793Z,2.23
2023-05-05T15:51:27.553Z,2.00
2023-05-05T15:53:54.900Z,2.70
2023-05-05T15:56:22.264Z,1.87
2023-05-05T15:58:49.640Z,2.30
2023-05-05T16:01:18.428Z,2.00
2023-05-05T16:03:46.235Z,2.07
2023-05-05T16:06:13.660Z,2.53
2023-05-05T16:08:40.898Z,2.23
2023-05-05T16:11:08.252Z,1.87
2023-05-05T16:13:35.489Z,2.50
2023-05-05T16:16:02.796Z,2.23
2023-05-05T16:18:31.447Z,2.10
2023-05-05T16:20:58.733Z,2.43
2023-05-05T16:23:25.993Z,4.57
2023-05-05T16:25:53.233Z,2.47
2023-05-05T16:28:20.501Z,2.43
2023-05-05T16:30:47.789Z,2.17
2023-05-05T16:33:15.043Z,1.50
2023-05-05T16:35:45.107Z,2.40
2023-05-05T16:38:12.819Z,1.80
2023-05-05T16:40:40.387Z,2.20
2023-05-05T16:43:07.690Z,2.10
2023-05-05T16:45:34.979Z,2.57
2023-05-05T16:48:02.293Z,2.40
2023-05-05T16:50:30.100Z,3.33
2023-05-05T16:52:58.670Z,2.23
2023-05-05T16:55:26.007Z,2.60
2023-05-05T16:57:53.281Z,2.43
2023-05-05T17:00:20.747Z,2.73
2023-05-05T17:02:48.104Z,3.00
2023-05-05T17:05:16.221Z,2.30
2023-05-05T17:07:43.592Z,2.73
2023-05-05T17:10:12.310Z,2.50
2023-05-05T17:12:39.561Z,3.47
2023-05-05T17:15:08.514Z,4.60
2023-05-05T17:17:35.946Z,4.50
2023-05-05T17:20:03.687Z,3.90
2023-05-05T17:22:30.863Z,4.63
2023-05-05T17:25:00.731Z,4.30
2023-05-05T17:27:29.547Z,4.80
2023-05-05T17:29:56.781Z,5.17
2023-05-05T17:32:24.104Z,5.60
2023-05-05T17:34:51.492Z,4.77
2023-05-05T17:37:18.736Z,3.50
2023-05-05T17:39:46.252Z,4.30
2023-05-05T17:42:13.535Z,4.83
2023-05-05T17:44:42.189Z,4.50
2023-05-05T17:47:09.600Z,5.87
2023-05-05T17:49:36.966Z,4.97
2023-05-05T17:52:04.713Z,4.63
2023-05-05T17:54:32.009Z,5.33
2023-05-05T17:56:59.362Z,4.10
2023-05-05T17:59:26.599Z,4.67
2023-05-05T18:01:55.211Z,5.53
2023-05-05T18:04:22.484Z,5.90
2023-05-05T18:06:49.673Z,6.27
2023-05-05T18:09:17.735Z,5.67
2023-05-05T18:11:45.037Z,12.97
2023-05-05T18:14:12.268Z,18.23
2023-05-05T18:16:39.777Z,4.63
2023-05-05T18:19:08.588Z,3.87
2023-05-05T18:21:35.800Z,4.03
2023-05-05T18:24:15.882Z,3.73
2023-05-05T18:26:47.750Z,3.50
2023-05-05T18:29:14.910Z,2.73
2023-05-05T18:31:42.403Z,4.20
2023-05-05T18:34:11.211Z,4.13
2023-05-05T18:36:38.523Z,4.73
2023-05-05T18:39:05.724Z,5.50
2023-05-05T18:41:33.099Z,5.37
2023-05-05T18:44:00.387Z,5.50
2023-05-05T18:46:27.868Z,4.10
2023-05-05T18:48:55.284Z,5.23
2023-05-05T18:51:23.972Z,5.37
2023-05-05T18:53:51.180Z,5.07
2023-05-05T18:56:18.720Z,6.17
2023-05-05T18:58:46.482Z,5.27
2023-05-05T19:01:14.015Z,5.80
2023-05-05T19:03:46.330Z,4.80
2023-05-05T19:06:13.754Z,6.00
2023-05-05T19:08:42.707Z,5.70
2023-05-05T19:11:10.144Z,4.93
2023-05-05T19:16:06.343Z,6.07
2023-05-05T19:18:33.665Z,7.70
2023-05-05T19:21:01.679Z,7.20
2023-05-05T19:23:28.956Z,5.97
2023-05-05T19:25:57.825Z,5.07
2023-05-05T19:28:25.114Z,6.03
2023-05-05T19:30:52.472Z,5.83
2023-05-05T19:33:20.063Z,5.03
2023-05-05T19:35:47.708Z,5.67
2023-05-05T19:38:15.037Z,4.27
2023-05-05T19:40:43.268Z,6.43
2023-05-05T19:43:11.888Z,5.20
2023-05-05T19:45:39.263Z,4.37
2023-05-05T19:48:06.630Z,5.30
2023-05-05T19:50:34.562Z,5.70
2023-05-05T19:53:03.257Z,6.23
2023-05-05T19:55:30.618Z,6.07
2023-05-05T19:57:57.982Z,4.80
2023-05-05T20:00:30.028Z,5.37
2023-05-05T20:02:57.477Z,5.43
2023-05-05T20:05:24.803Z,5.60
2023-05-05T20:07:52.262Z,5.57
2023-05-05T20:10:20.090Z,4.70
2023-05-05T20:12:47.886Z,4.47
2023-05-05T20:15:16.084Z,5.03
2023-05-05T20:17:45.252Z,4.70
2023-05-05T20:20:15.199Z,4.20
2023-05-05T20:22:42.668Z,3.60
2023-05-05T20:25:10.341Z,2.63
2023-05-05T20:27:37.853Z,3.73
2023-05-05T20:30:06.409Z,2.73
2023-05-05T20:32:34.054Z,9.77
2023-05-05T20:35:02.911Z,5.00
2023-05-05T20:37:30.124Z,3.30
2023-05-05T20:39:57.584Z,3.90
2023-05-05T20:42:24.867Z,2.93
2023-05-05T20:44:52.206Z,3.03
2023-05-05T20:47:19.559Z,3.13
2023-05-05T20:49:46.836Z,2.63
2023-05-05T20:52:15.616Z,3.17
2023-05-05T20:54:42.906Z,2.17
2023-05-05T20:57:10.675Z,2.67
2023-05-05T20:59:38.210Z,2.70
2023-05-05T21:02:05.713Z,2.83
2023-05-05T21:04:33.142Z,3.00
2023-05-05T21:07:00.624Z,2.87
2023-05-05T21:09:29.337Z,3.30
2023-05-05T21:11:56.710Z,3.83
2023-05-05T21:14:23.921Z,3.10
2023-05-05T21:16:51.296Z,4.80
2023-05-05T21:19:18.792Z,3.60
2023-05-05T21:21:46.169Z,2.40
2023-05-05T21:24:13.476Z,3.20
2023-05-05T21:26:43.748Z,3.50
2023-05-05T21:29:11.424Z,3.70
2023-05-05T21:31:38.838Z,3.47
2023-05-05T21:34:06.198Z,4.47
2023-05-05T21:36:33.428Z,3.10
2023-05-05T21:39:00.690Z,3.40
2023-05-05T21:41:28.328Z,3.80
2023-05-05T21:43:57.766Z,3.70
2023-05-05T21:46:25.251Z,3.70
2023-05-05T21:48:52.641Z,2.73
2023-05-05T21:51:20.103Z,3.40
2023-05-05T21:53:47.474Z,2.57
2023-05-05T21:56:14.926Z,3.80
2023-05-05T21:58:42.120Z,4.40
2023-05-05T22:01:12.140Z,3.60
2023-05-05T22:03:39.521Z,3.77
2023-05-05T22:06:06.876Z,4.77
2023-05-05T22:08:34.161Z,3.00
2023-05-05T22:11:01.486Z,3.77
2023-05-05T22:13:28.852Z,3.60
2023-05-05T22:15:56.286Z,3.77
2023-05-05T22:18:25.017Z,4.40
2023-05-05T22:20:52.312Z,3.90
2023-05-05T22:23:19.593Z,3.63
2023-05-05T22:25:46.868Z,4.00
2023-05-05T22:28:14.281Z,5.33
2023-05-05T22:30:41.669Z,3.30
2023-05-05T22:33:09.025Z,3.97
2023-05-05T22:35:38.276Z,4.50
2023-05-05T22:38:05.684Z,5.90
2023-05-05T22:40:33.000Z,5.80
2023-05-05T22:43:00.256Z,5.47
2023-05-05T22:45:27.682Z,7.03
2023-05-05T22:47:54.960Z,5.80
2023-05-05T22:50:22.480Z,4.97
2023-05-05T22:52:51.178Z,4.27
2023-05-05T22:55:18.859Z,3.83
2023-05-05T22:57:46.365Z,4.10
2023-05-05T23:00:13.982Z,4.80
2023-05-05T23:02:41.301Z,4.07
2023-05-05T23:05:09.619Z,3.53
2023-05-05T23:07:37.095Z,5.20
2023-05-05T23:10:06.895Z,3.00
2023-05-05T23:12:34.242Z,3.77
2023-05-05T23:15:01.669Z,4.90
2023-05-05T23:17:28.938Z,4.63
2023-05-05T23:19:56.283Z,6.07
2023-05-05T23:22:23.579Z,2.93
2023-05-05T23:24:50.981Z,5.50
2023-05-05T23:27:19.815Z,4.37
2023-05-05T23:29:47.178Z,4.20
2023-05-05T23:32:14.459Z,3.33
2023-05-05T23:34:41.818Z,4.80
2023-05-05T23:37:09.104Z,4.87
2023-05-05T23:39:36.534Z,4.83
2023-05-05T23:42:03.952Z,4.47
2023-05-05T23:44:32.564Z,2.90
2023-05-05T23:46:59.822Z,4.97
2023-05-05T23:49:27.106Z,5.07
2023-05-05T23:51:54.368Z,6.23
2023-05-05T23:54:21.706Z,5.20
2023-05-05T23:56:48.934Z,4.57
2023-05-05T23:59:16.429Z,6.40
